sensor_id;sensor_type;location;lat;lon;timestamp;P1;durP1;ratioP1;P2;durP2;ratioP2
20497;SDS011;10407;53.238;10.448;2023-06-10T00:00:44;82.93;;;9.70;;
20497;SDS011;10407;53.238;10.448;2023-06-10T00:03:12;86.43;;;9.50;;
20497;SDS011;10407;53.238;10.448;2023-06-10T00:05:40;87.17;;;9.30;;
20497;SDS011;10407;53.238;10.448;2023-06-10T00:08:07;83.33;;;9.70;;
20497;SDS011;10407;53.238;10.448;2023-06-10T00:10:36;91.20;;;9.17;;
20497;SDS011;10407;53.238;10.448;2023-06-10T00:13:05;93.03;;;9.27;;
20497;SDS011;10407;53.238;10.448;2023-06-10T00:15:37;86.53;;;8.53;;
20497;SDS011;10407;53.238;10.448;2023-06-10T00:18:05;86.47;;;10.10;;
20497;SDS011;10407;53.238;10.448;2023-06-10T00:20:34;88.67;;;10.07;;
20497;SDS011;10407;53.238;10.448;2023-06-10T00:23:03;86.53;;;9.33;;
20497;SDS011;10407;53.238;10.448;2023-06-10T00:25:32;84.10;;;9.20;;
20497;SDS011;10407;53.238;10.448;2023-06-10T00:28:00;86.00;;;8.10;;
20497;SDS011;10407;53.238;10.448;2023-06-10T00:30:28;86.20;;;8.00;;
20497;SDS011;10407;53.238;10.448;2023-06-10T00:32:55;85.77;;;9.80;;
20497;SDS011;10407;53.238;10.448;2023-06-10T00:35:23;86.03;;;8.90;;
20497;SDS011;10407;53.238;10.448;2023-06-10T00:37:50;88.87;;;10.20;;
20497;SDS011;10407;53.238;10.448;2023-06-10T00:40:18;82.80;;;7.80;;
20497;SDS011;10407;53.238;10.448;2023-06-10T00:42:45;81.60;;;7.90;;
20497;SDS011;10407;53.238;10.448;2023-06-10T00:45:13;86.20;;;8.97;;
20497;SDS011;10407;53.238;10.448;2023-06-10T00:47:40;86.07;;;8.13;;
20497;SDS011;10407;53.238;10.448;2023-06-10T00:50:08;84.63;;;9.70;;
20497;SDS011;10407;53.238;10.448;2023-06-10T00:52:36;88.33;;;9.33;;
20497;SDS011;10407;53.238;10.448;2023-06-10T00:55:04;83.60;;;9.17;;
20497;SDS011;10407;53.238;10.448;2023-06-10T00:57:33;82.47;;;8.17;;
20497;SDS011;10407;53.238;10.448;2023-06-10T01:00:01;84.93;;;8.77;;
20497;SDS011;10407;53.238;10.448;2023-06-10T01:02:30;85.67;;;8.37;;
20497;SDS011;10407;53.238;10.448;2023-06-10T01:04:58;85.77;;;9.13;;
20497;SDS011;10407;53.238;10.448;2023-06-10T01:07:28;82.97;;;8.40;;
20497;SDS011;10407;53.238;10.448;2023-06-10T01:10:24;82.67;;;9.27;;
20497;SDS011;10407;53.238;10.448;2023-06-10T01:13:00;84.23;;;7.63;;
20497;SDS011;10407;53.238;10.448;2023-06-10T01:15:30;87.93;;;10.60;;
20497;SDS011;10407;53.238;10.448;2023-06-10T01:18:02;82.20;;;8.60;;
20497;SDS011;10407;53.238;10.448;2023-06-10T01:20:33;86.53;;;9.27;;
20497;SDS011;10407;53.238;10.448;2023-06-10T01:23:02;86.10;;;9.63;;
20497;SDS011;10407;53.238;10.448;2023-06-10T01:25:30;84.60;;;10.10;;
20497;SDS011;10407;53.238;10.448;2023-06-10T01:30:35;84.00;;;8.70;;
20497;SDS011;10407;53.238;10.448;2023-06-10T01:33:03;88.77;;;11.13;;
20497;SDS011;10407;53.238;10.448;2023-06-10T01:35:33;90.27;;;8.70;;
20497;SDS011;10407;53.238;10.448;2023-06-10T01:38:04;83.60;;;9.50;;
20497;SDS011;10407;53.238;10.448;2023-06-10T01:40:34;83.80;;;10.03;;
20497;SDS011;10407;53.238;10.448;2023-06-10T01:43:02;92.00;;;9.30;;
20497;SDS011;10407;53.238;10.448;2023-06-10T01:45:30;87.83;;;10.50;;
20497;SDS011;10407;53.238;10.448;2023-06-10T01:47:57;86.13;;;9.60;;
20497;SDS011;10407;53.238;10.448;2023-06-10T01:50:25;83.87;;;9.30;;
20497;SDS011;10407;53.238;10.448;2023-06-10T01:52:52;85.00;;;8.77;;
20497;SDS011;10407;53.238;10.448;2023-06-10T01:55:20;91.00;;;10.07;;
20497;SDS011;10407;53.238;10.448;2023-06-10T01:57:47;83.07;;;10.27;;
20497;SDS011;10407;53.238;10.448;2023-06-10T02:00:15;90.47;;;11.20;;
20497;SDS011;10407;53.238;10.448;2023-06-10T02:02:43;85.37;;;10.10;;
20497;SDS011;10407;53.238;10.448;2023-06-10T02:05:10;83.93;;;8.37;;
20497;SDS011;10407;53.238;10.448;2023-06-10T02:07:38;85.30;;;9.30;;
20497;SDS011;10407;53.238;10.448;2023-06-10T02:10:06;84.67;;;8.00;;
20497;SDS011;10407;53.238;10.448;2023-06-10T02:12:34;84.67;;;9.00;;
20497;SDS011;10407;53.238;10.448;2023-06-10T02:15:01;87.67;;;8.17;;
20497;SDS011;10407;53.238;10.448;2023-06-10T02:17:29;81.67;;;8.90;;
20497;SDS011;10407;53.238;10.448;2023-06-10T02:19:58;84.00;;;8.80;;
20497;SDS011;10407;53.238;10.448;2023-06-10T02:22:27;87.83;;;9.23;;
20497;SDS011;10407;53.238;10.448;2023-06-10T02:24:55;84.87;;;8.73;;
20497;SDS011;10407;53.238;10.448;2023-06-10T02:27:22;82.53;;;8.10;;
20497;SDS011;10407;53.238;10.448;2023-06-10T02:29:50;90.50;;;9.27;;
20497;SDS011;10407;53.238;10.448;2023-06-10T02:32:17;86.27;;;8.63;;
20497;SDS011;10407;53.238;10.448;2023-06-10T02:34:45;85.40;;;8.00;;
20497;SDS011;10407;53.238;10.448;2023-06-10T02:37:15;87.30;;;9.57;;
20497;SDS011;10407;53.238;10.448;2023-06-10T02:39:42;82.80;;;8.60;;
20497;SDS011;10407;53.238;10.448;2023-06-10T02:42:10;83.60;;;9.70;;
20497;SDS011;10407;53.238;10.448;2023-06-10T02:44:37;90.20;;;10.43;;
20497;SDS011;10407;53.238;10.448;2023-06-10T02:47:05;83.50;;;7.97;;
20497;SDS011;10407;53.238;10.448;2023-06-10T02:49:33;84.13;;;8.63;;
20497;SDS011;10407;53.238;10.448;2023-06-10T02:52:00;82.97;;;7.77;;
20497;SDS011;10407;53.238;10.448;2023-06-10T02:54:28;84.73;;;7.43;;
20497;SDS011;10407;53.238;10.448;2023-06-10T02:56:55;98.80;;;9.43;;
20497;SDS011;10407;53.238;10.448;2023-06-10T02:59:23;84.33;;;8.43;;
20497;SDS011;10407;53.238;10.448;2023-06-10T03:01:52;94.63;;;8.70;;
20497;SDS011;10407;53.238;10.448;2023-06-10T03:04:20;88.47;;;7.47;;
20497;SDS011;10407;53.238;10.448;2023-06-10T03:06:49;83.97;;;7.30;;
20497;SDS011;10407;53.238;10.448;2023-06-10T03:09:16;85.43;;;9.47;;
20497;SDS011;10407;53.238;10.448;2023-06-10T03:11:44;82.50;;;7.57;;
20497;SDS011;10407;53.238;10.448;2023-06-10T03:14:11;85.20;;;9.80;;
20497;SDS011;10407;53.238;10.448;2023-06-10T03:16:39;83.87;;;7.90;;
20497;SDS011;10407;53.238;10.448;2023-06-10T03:19:08;82.53;;;8.60;;
20497;SDS011;10407;53.238;10.448;2023-06-10T03:21:35;83.30;;;8.00;;
20497;SDS011;10407;53.238;10.448;2023-06-10T03:24:04;84.20;;;8.97;;
20497;SDS011;10407;53.238;10.448;2023-06-10T03:26:32;85.47;;;8.40;;
20497;SDS011;10407;53.238;10.448;2023-06-10T03:28:59;85.60;;;9.17;;
20497;SDS011;10407;53.238;10.448;2023-06-10T03:31:27;86.97;;;9.00;;
20497;SDS011;10407;53.238;10.448;2023-06-10T03:33:55;88.67;;;8.70;;
20497;SDS011;10407;53.238;10.448;2023-06-10T03:36:24;87.17;;;9.53;;
20497;SDS011;10407;53.238;10.448;2023-06-10T03:38:53;84.07;;;8.07;;
20497;SDS011;10407;53.238;10.448;2023-06-10T03:41:22;86.20;;;9.60;;
20497;SDS011;10407;53.238;10.448;2023-06-10T03:43:51;90.40;;;8.73;;
20497;SDS011;10407;53.238;10.448;2023-06-10T03:46:18;86.10;;;8.47;;
20497;SDS011;10407;53.238;10.448;2023-06-10T03:48:46;86.03;;;8.30;;
20497;SDS011;10407;53.238;10.448;2023-06-10T03:51:14;81.00;;;7.23;;
20497;SDS011;10407;53.238;10.448;2023-06-10T03:53:41;84.67;;;8.07;;
20497;SDS011;10407;53.238;10.448;2023-06-10T03:56:09;84.20;;;8.17;;
20497;SDS011;10407;53.238;10.448;2023-06-10T03:58:37;84.60;;;7.93;;
20497;SDS011;10407;53.238;10.448;2023-06-10T04:01:04;83.53;;;8.13;;
20497;SDS011;10407;53.238;10.448;2023-06-10T04:03:33;83.00;;;8.70;;
20497;SDS011;10407;53.238;10.448;2023-06-10T04:06:00;81.60;;;7.60;;
20497;SDS011;10407;53.238;10.448;2023-06-10T04:08:28;82.03;;;8.20;;
20497;SDS011;10407;53.238;10.448;2023-06-10T04:10:57;80.37;;;7.50;;
20497;SDS011;10407;53.238;10.448;2023-06-10T04:13:24;85.27;;;8.60;;
20497;SDS011;10407;53.238;10.448;2023-06-10T04:15:53;84.67;;;7.40;;
20497;SDS011;10407;53.238;10.448;2023-06-10T04:18:20;82.83;;;7.10;;
20497;SDS011;10407;53.238;10.448;2023-06-10T04:20:48;84.57;;;8.00;;
20497;SDS011;10407;53.238;10.448;2023-06-10T04:23:15;86.70;;;7.97;;
20497;SDS011;10407;53.238;10.448;2023-06-10T04:25:43;84.30;;;8.70;;
20497;SDS011;10407;53.238;10.448;2023-06-10T04:28:11;82.47;;;7.33;;
20497;SDS011;10407;53.238;10.448;2023-06-10T04:30:39;84.17;;;8.07;;
20497;SDS011;10407;53.238;10.448;2023-06-10T04:33:07;86.00;;;7.10;;
20497;SDS011;10407;53.238;10.448;2023-06-10T04:35:35;81.60;;;7.07;;
20497;SDS011;10407;53.238;10.448;2023-06-10T04:38:02;87.17;;;8.83;;
20497;SDS011;10407;53.238;10.448;2023-06-10T04:40:30;86.37;;;8.10;;
20497;SDS011;10407;53.238;10.448;2023-06-10T04:42:57;84.90;;;8.00;;
20497;SDS011;10407;53.238;10.448;2023-06-10T04:45:25;85.53;;;7.50;;
20497;SDS011;10407;53.238;10.448;2023-06-10T04:47:54;94.30;;;7.50;;
20497;SDS011;10407;53.238;10.448;2023-06-10T04:50:23;81.87;;;7.93;;
20497;SDS011;10407;53.238;10.448;2023-06-10T04:52:51;83.80;;;8.03;;
20497;SDS011;10407;53.238;10.448;2023-06-10T04:55:19;85.37;;;7.40;;
20497;SDS011;10407;53.238;10.448;2023-06-10T04:57:47;85.07;;;6.67;;
20497;SDS011;10407;53.238;10.448;2023-06-10T05:00:16;84.30;;;8.27;;
20497;SDS011;10407;53.238;10.448;2023-06-10T05:02:44;83.27;;;8.20;;
20497;SDS011;10407;53.238;10.448;2023-06-10T05:05:13;93.00;;;9.70;;
20497;SDS011;10407;53.238;10.448;2023-06-10T05:07:40;82.90;;;7.47;;
20497;SDS011;10407;53.238;10.448;2023-06-10T05:10:08;87.30;;;7.80;;
20497;SDS011;10407;53.238;10.448;2023-06-10T05:12:38;83.30;;;7.80;;
20497;SDS011;10407;53.238;10.448;2023-06-10T05:15:07;83.33;;;7.97;;
20497;SDS011;10407;53.238;10.448;2023-06-10T05:17:35;82.90;;;8.10;;
20497;SDS011;10407;53.238;10.448;2023-06-10T05:20:03;85.77;;;6.50;;
20497;SDS011;10407;53.238;10.448;2023-06-10T05:22:30;83.77;;;7.63;;
20497;SDS011;10407;53.238;10.448;2023-06-10T05:24:58;84.47;;;7.20;;
20497;SDS011;10407;53.238;10.448;2023-06-10T05:27:26;83.83;;;8.47;;
20497;SDS011;10407;53.238;10.448;2023-06-10T05:29:53;83.13;;;6.47;;
20497;SDS011;10407;53.238;10.448;2023-06-10T05:32:21;83.70;;;8.20;;
20497;SDS011;10407;53.238;10.448;2023-06-10T05:34:48;84.03;;;7.23;;
20497;SDS011;10407;53.238;10.448;2023-06-10T05:37:16;89.00;;;7.53;;
20497;SDS011;10407;53.238;10.448;2023-06-10T05:39:43;86.70;;;7.40;;
20497;SDS011;10407;53.238;10.448;2023-06-10T05:42:11;81.83;;;6.77;;
20497;SDS011;10407;53.238;10.448;2023-06-10T05:44:38;93.80;;;7.97;;
20497;SDS011;10407;53.238;10.448;2023-06-10T05:47:06;88.33;;;8.97;;
20497;SDS011;10407;53.238;10.448;2023-06-10T05:49:33;82.67;;;7.97;;
20497;SDS011;10407;53.238;10.448;2023-06-10T05:52:01;83.87;;;7.30;;
20497;SDS011;10407;53.238;10.448;2023-06-10T05:54:29;84.37;;;8.30;;
20497;SDS011;10407;53.238;10.448;2023-06-10T05:56:56;84.60;;;7.40;;
20497;SDS011;10407;53.238;10.448;2023-06-10T05:59:24;82.10;;;7.77;;
20497;SDS011;10407;53.238;10.448;2023-06-10T06:01:52;82.93;;;7.33;;
20497;SDS011;10407;53.238;10.448;2023-06-10T06:04:19;82.60;;;7.50;;
20497;SDS011;10407;53.238;10.448;2023-06-10T06:06:47;83.83;;;7.50;;
20497;SDS011;10407;53.238;10.448;2023-06-10T06:09:14;84.60;;;6.67;;
20497;SDS011;10407;53.238;10.448;2023-06-10T06:11:42;87.27;;;6.60;;
20497;SDS011;10407;53.238;10.448;2023-06-10T06:14:10;86.07;;;7.60;;
20497;SDS011;10407;53.238;10.448;2023-06-10T06:16:38;83.07;;;6.50;;
20497;SDS011;10407;53.238;10.448;2023-06-10T06:19:05;83.10;;;7.07;;
20497;SDS011;10407;53.238;10.448;2023-06-10T06:21:33;87.90;;;6.50;;
20497;SDS011;10407;53.238;10.448;2023-06-10T06:24:00;81.37;;;6.50;;
20497;SDS011;10407;53.238;10.448;2023-06-10T06:26:28;85.43;;;7.20;;
20497;SDS011;10407;53.238;10.448;2023-06-10T06:28:55;83.63;;;6.77;;
20497;SDS011;10407;53.238;10.448;2023-06-10T06:31:23;84.60;;;7.37;;
20497;SDS011;10407;53.238;10.448;2023-06-10T06:33:51;85.07;;;6.83;;
20497;SDS011;10407;53.238;10.448;2023-06-10T06:36:18;85.50;;;6.83;;
20497;SDS011;10407;53.238;10.448;2023-06-10T06:38:46;83.10;;;7.40;;
20497;SDS011;10407;53.238;10.448;2023-06-10T06:41:13;88.27;;;7.00;;
20497;SDS011;10407;53.238;10.448;2023-06-10T06:43:41;87.27;;;7.50;;
20497;SDS011;10407;53.238;10.448;2023-06-10T06:46:09;87.03;;;7.23;;
20497;SDS011;10407;53.238;10.448;2023-06-10T06:48:36;82.47;;;6.47;;
20497;SDS011;10407;53.238;10.448;2023-06-10T06:51:04;81.00;;;6.63;;
20497;SDS011;10407;53.238;10.448;2023-06-10T06:53:31;85.50;;;6.90;;
20497;SDS011;10407;53.238;10.448;2023-06-10T06:55:59;83.80;;;6.80;;
20497;SDS011;10407;53.238;10.448;2023-06-10T06:58:26;80.53;;;6.53;;
20497;SDS011;10407;53.238;10.448;2023-06-10T07:00:54;81.10;;;5.63;;
20497;SDS011;10407;53.238;10.448;2023-06-10T07:03:21;84.80;;;6.83;;
20497;SDS011;10407;53.238;10.448;2023-06-10T07:05:49;80.80;;;6.70;;
20497;SDS011;10407;53.238;10.448;2023-06-10T07:08:16;82.80;;;7.03;;
20497;SDS011;10407;53.238;10.448;2023-06-10T07:10:44;83.27;;;6.90;;
20497;SDS011;10407;53.238;10.448;2023-06-10T07:13:11;84.77;;;6.73;;
20497;SDS011;10407;53.238;10.448;2023-06-10T07:15:39;80.20;;;5.67;;
20497;SDS011;10407;53.238;10.448;2023-06-10T07:18:06;86.07;;;6.23;;
20497;SDS011;10407;53.238;10.448;2023-06-10T07:20:34;83.07;;;6.33;;
20497;SDS011;10407;53.238;10.448;2023-06-10T07:23:01;83.50;;;7.00;;
20497;SDS011;10407;53.238;10.448;2023-06-10T07:25:29;84.57;;;7.00;;
20497;SDS011;10407;53.238;10.448;2023-06-10T07:27:57;82.57;;;6.30;;
20497;SDS011;10407;53.238;10.448;2023-06-10T07:30:24;84.77;;;6.20;;
20497;SDS011;10407;53.238;10.448;2023-06-10T07:32:52;84.40;;;6.30;;
20497;SDS011;10407;53.238;10.448;2023-06-10T07:35:19;84.67;;;6.17;;
20497;SDS011;10407;53.238;10.448;2023-06-10T07:37:47;83.30;;;6.53;;
20497;SDS011;10407;53.238;10.448;2023-06-10T07:40:15;82.67;;;6.07;;
20497;SDS011;10407;53.238;10.448;2023-06-10T07:42:42;90.50;;;5.93;;
20497;SDS011;10407;53.238;10.448;2023-06-10T07:45:10;84.30;;;6.77;;
20497;SDS011;10407;53.238;10.448;2023-06-10T07:47:37;82.53;;;6.00;;
20497;SDS011;10407;53.238;10.448;2023-06-10T07:50:05;79.40;;;6.43;;
20497;SDS011;10407;53.238;10.448;2023-06-10T07:52:33;85.93;;;6.03;;
20497;SDS011;10407;53.238;10.448;2023-06-10T07:55:00;79.80;;;5.90;;
20497;SDS011;10407;53.238;10.448;2023-06-10T07:57:29;82.47;;;5.80;;
20497;SDS011;10407;53.238;10.448;2023-06-10T07:59:58;80.57;;;5.57;;
20497;SDS011;10407;53.238;10.448;2023-06-10T08:02:25;84.40;;;5.80;;
20497;SDS011;10407;53.238;10.448;2023-06-10T08:04:53;84.90;;;6.57;;
20497;SDS011;10407;53.238;10.448;2023-06-10T08:07:21;81.97;;;6.10;;
20497;SDS011;10407;53.238;10.448;2023-06-10T08:09:48;83.30;;;6.70;;
20497;SDS011;10407;53.238;10.448;2023-06-10T08:12:16;82.80;;;6.03;;
20497;SDS011;10407;53.238;10.448;2023-06-10T08:14:44;84.30;;;6.63;;
20497;SDS011;10407;53.238;10.448;2023-06-10T08:17:11;81.90;;;6.33;;
20497;SDS011;10407;53.238;10.448;2023-06-10T08:19:39;89.43;;;6.93;;
20497;SDS011;10407;53.238;10.448;2023-06-10T08:22:06;81.97;;;6.53;;
20497;SDS011;10407;53.238;10.448;2023-06-10T08:24:34;82.00;;;6.53;;
20497;SDS011;10407;53.238;10.448;2023-06-10T08:27:01;83.47;;;6.20;;
20497;SDS011;10407;53.238;10.448;2023-06-10T08:29:29;81.70;;;6.50;;
20497;SDS011;10407;53.238;10.448;2023-06-10T08:31:57;82.40;;;7.00;;
20497;SDS011;10407;53.238;10.448;2023-06-10T08:34:25;83.50;;;6.73;;
20497;SDS011;10407;53.238;10.448;2023-06-10T08:36:53;82.87;;;6.47;;
20497;SDS011;10407;53.238;10.448;2023-06-10T08:39:21;83.13;;;5.83;;
20497;SDS011;10407;53.238;10.448;2023-06-10T08:44:38;82.20;;;6.30;;
20497;SDS011;10407;53.238;10.448;2023-06-10T08:47:12;81.30;;;6.50;;
20497;SDS011;10407;53.238;10.448;2023-06-10T08:49:45;83.40;;;6.17;;
20497;SDS011;10407;53.238;10.448;2023-06-10T08:52:17;81.30;;;5.97;;
20497;SDS011;10407;53.238;10.448;2023-06-10T08:54:48;86.17;;;7.00;;
20497;SDS011;10407;53.238;10.448;2023-06-10T08:57:17;82.27;;;6.60;;
20497;SDS011;10407;53.238;10.448;2023-06-10T08:59:47;85.13;;;7.07;;
20497;SDS011;10407;53.238;10.448;2023-06-10T09:02:16;81.80;;;6.17;;
20497;SDS011;10407;53.238;10.448;2023-06-10T09:04:50;82.63;;;7.00;;
20497;SDS011;10407;53.238;10.448;2023-06-10T09:07:15;85.87;;;6.83;;
20497;SDS011;10407;53.238;10.448;2023-06-10T09:09:43;84.17;;;7.30;;
20497;SDS011;10407;53.238;10.448;2023-06-10T09:12:14;81.90;;;6.67;;
20497;SDS011;10407;53.238;10.448;2023-06-10T09:14:42;79.30;;;6.10;;
20497;SDS011;10407;53.238;10.448;2023-06-10T09:17:10;82.93;;;6.80;;
20497;SDS011;10407;53.238;10.448;2023-06-10T09:19:38;81.60;;;6.30;;
20497;SDS011;10407;53.238;10.448;2023-06-10T09:22:06;81.90;;;6.87;;
20497;SDS011;10407;53.238;10.448;2023-06-10T09:24:34;83.23;;;6.70;;
20497;SDS011;10407;53.238;10.448;2023-06-10T09:27:08;83.30;;;7.00;;
20497;SDS011;10407;53.238;10.448;2023-06-10T09:29:51;82.70;;;7.10;;
20497;SDS011;10407;53.238;10.448;2023-06-10T09:32:20;82.57;;;7.67;;
20497;SDS011;10407;53.238;10.448;2023-06-10T09:34:48;83.23;;;7.27;;
20497;SDS011;10407;53.238;10.448;2023-06-10T09:37:21;80.20;;;5.63;;
20497;SDS011;10407;53.238;10.448;2023-06-10T09:40:05;82.77;;;6.60;;
20497;SDS011;10407;53.238;10.448;2023-06-10T09:42:34;82.80;;;6.63;;
20497;SDS011;10407;53.238;10.448;2023-06-10T09:45:04;82.20;;;7.10;;
20497;SDS011;10407;53.238;10.448;2023-06-10T09:47:33;84.40;;;7.00;;
20497;SDS011;10407;53.238;10.448;2023-06-10T09:50:00;83.00;;;6.93;;
20497;SDS011;10407;53.238;10.448;2023-06-10T09:52:28;86.13;;;7.43;;
20497;SDS011;10407;53.238;10.448;2023-06-10T09:55:00;84.53;;;6.03;;
20497;SDS011;10407;53.238;10.448;2023-06-10T09:57:31;81.60;;;6.67;;
20497;SDS011;10407;53.238;10.448;2023-06-10T10:02:50;82.87;;;6.33;;
20497;SDS011;10407;53.238;10.448;2023-06-10T10:05:20;83.30;;;6.80;;
20497;SDS011;10407;53.238;10.448;2023-06-10T10:07:49;87.60;;;6.80;;
20497;SDS011;10407;53.238;10.448;2023-06-10T10:10:17;83.83;;;7.50;;
20497;SDS011;10407;53.238;10.448;2023-06-10T10:12:47;83.87;;;6.80;;
20497;SDS011;10407;53.238;10.448;2023-06-10T10:15:17;90.53;;;7.80;;
20497;SDS011;10407;53.238;10.448;2023-06-10T10:20:34;81.20;;;7.27;;
20497;SDS011;10407;53.238;10.448;2023-06-10T10:23:04;83.77;;;6.60;;
20497;SDS011;10407;53.238;10.448;2023-06-10T10:25:37;86.87;;;6.67;;
20497;SDS011;10407;53.238;10.448;2023-06-10T10:28:10;80.90;;;6.97;;
20497;SDS011;10407;53.238;10.448;2023-06-10T10:30:52;86.33;;;8.47;;
20497;SDS011;10407;53.238;10.448;2023-06-10T10:33:36;81.77;;;7.30;;
20497;SDS011;10407;53.238;10.448;2023-06-10T10:36:22;82.43;;;7.47;;
20497;SDS011;10407;53.238;10.448;2023-06-10T10:38:49;83.50;;;7.50;;
20497;SDS011;10407;53.238;10.448;2023-06-10T10:41:18;83.37;;;7.77;;
20497;SDS011;10407;53.238;10.448;2023-06-10T10:43:46;82.07;;;7.83;;
20497;SDS011;10407;53.238;10.448;2023-06-10T10:46:17;82.97;;;7.83;;
20497;SDS011;10407;53.238;10.448;2023-06-10T10:48:45;82.13;;;7.03;;
20497;SDS011;10407;53.238;10.448;2023-06-10T10:51:14;84.00;;;7.80;;
20497;SDS011;10407;53.238;10.448;2023-06-10T10:53:42;84.90;;;6.70;;
20497;SDS011;10407;53.238;10.448;2023-06-10T10:56:14;82.20;;;7.67;;
20497;SDS011;10407;53.238;10.448;2023-06-10T10:59:01;85.30;;;7.27;;
20497;SDS011;10407;53.238;10.448;2023-06-10T11:01:41;83.97;;;6.73;;
20497;SDS011;10407;53.238;10.448;2023-06-10T11:04:12;83.77;;;7.60;;
20497;SDS011;10407;53.238;10.448;2023-06-10T11:06:39;85.87;;;8.60;;
20497;SDS011;10407;53.238;10.448;2023-06-10T11:09:24;87.83;;;7.93;;
20497;SDS011;10407;53.238;10.448;2023-06-10T11:11:51;82.50;;;7.00;;
20497;SDS011;10407;53.238;10.448;2023-06-10T11:14:28;83.40;;;7.70;;
20497;SDS011;10407;53.238;10.448;2023-06-10T11:16:57;87.67;;;9.47;;
20497;SDS011;10407;53.238;10.448;2023-06-10T11:19:32;84.07;;;7.60;;
20497;SDS011;10407;53.238;10.448;2023-06-10T11:22:02;85.30;;;8.10;;
20497;SDS011;10407;53.238;10.448;2023-06-10T11:24:31;85.23;;;8.50;;
20497;SDS011;10407;53.238;10.448;2023-06-10T11:27:20;81.77;;;7.80;;
20497;SDS011;10407;53.238;10.448;2023-06-10T11:32:30;82.87;;;8.10;;
20497;SDS011;10407;53.238;10.448;2023-06-10T11:35:04;85.30;;;8.30;;
20497;SDS011;10407;53.238;10.448;2023-06-10T11:37:33;86.00;;;8.77;;
20497;SDS011;10407;53.238;10.448;2023-06-10T11:40:01;84.67;;;8.10;;
20497;SDS011;10407;53.238;10.448;2023-06-10T11:42:29;88.83;;;7.70;;
20497;SDS011;10407;53.238;10.448;2023-06-10T11:44:57;86.33;;;8.10;;
20497;SDS011;10407;53.238;10.448;2023-06-10T11:47:26;81.33;;;7.87;;
20497;SDS011;10407;53.238;10.448;2023-06-10T11:49:57;82.30;;;7.07;;
20497;SDS011;10407;53.238;10.448;2023-06-10T11:52:28;82.20;;;8.17;;
20497;SDS011;10407;53.238;10.448;2023-06-10T11:54:58;83.77;;;8.67;;
20497;SDS011;10407;53.238;10.448;2023-06-10T11:57:26;87.13;;;8.20;;
20497;SDS011;10407;53.238;10.448;2023-06-10T11:59:54;81.47;;;7.90;;
20497;SDS011;10407;53.238;10.448;2023-06-10T12:02:21;82.30;;;7.37;;
20497;SDS011;10407;53.238;10.448;2023-06-10T12:04:49;83.83;;;7.70;;
20497;SDS011;10407;53.238;10.448;2023-06-10T12:07:17;82.63;;;7.93;;
20497;SDS011;10407;53.238;10.448;2023-06-10T12:09:45;83.83;;;8.60;;
20497;SDS011;10407;53.238;10.448;2023-06-10T12:12:13;82.90;;;7.30;;
20497;SDS011;10407;53.238;10.448;2023-06-10T12:14:54;81.10;;;7.50;;
20497;SDS011;10407;53.238;10.448;2023-06-10T12:20:03;83.40;;;7.90;;
20497;SDS011;10407;53.238;10.448;2023-06-10T12:22:42;83.67;;;7.90;;
20497;SDS011;10407;53.238;10.448;2023-06-10T12:25:06;81.87;;;7.10;;
20497;SDS011;10407;53.238;10.448;2023-06-10T12:27:34;84.60;;;7.33;;
20497;SDS011;10407;53.238;10.448;2023-06-10T12:30:04;87.13;;;7.80;;
20497;SDS011;10407;53.238;10.448;2023-06-10T12:32:39;81.40;;;7.23;;
20497;SDS011;10407;53.238;10.448;2023-06-10T12:35:09;80.37;;;7.53;;
20497;SDS011;10407;53.238;10.448;2023-06-10T12:37:41;82.07;;;7.60;;
20497;SDS011;10407;53.238;10.448;2023-06-10T12:40:09;83.50;;;8.50;;
20497;SDS011;10407;53.238;10.448;2023-06-10T12:42:37;85.30;;;8.37;;
20497;SDS011;10407;53.238;10.448;2023-06-10T12:45:05;81.70;;;7.80;;
20497;SDS011;10407;53.238;10.448;2023-06-10T12:47:40;85.30;;;8.30;;
20497;SDS011;10407;53.238;10.448;2023-06-10T12:50:05;81.70;;;7.33;;
20497;SDS011;10407;53.238;10.448;2023-06-10T12:52:34;84.03;;;8.10;;
20497;SDS011;10407;53.238;10.448;2023-06-10T12:55:03;81.60;;;8.10;;
20497;SDS011;10407;53.238;10.448;2023-06-10T12:57:31;86.70;;;8.13;;
20497;SDS011;10407;53.238;10.448;2023-06-10T12:59:58;84.27;;;8.63;;
20497;SDS011;10407;53.238;10.448;2023-06-10T13:02:28;81.87;;;8.10;;
20497;SDS011;10407;53.238;10.448;2023-06-10T13:04:55;81.73;;;7.90;;
20497;SDS011;10407;53.238;10.448;2023-06-10T13:07:23;82.67;;;7.87;;
20497;SDS011;10407;53.238;10.448;2023-06-10T13:09:51;84.10;;;8.07;;
20497;SDS011;10407;53.238;10.448;2023-06-10T13:12:18;80.87;;;7.90;;
20497;SDS011;10407;53.238;10.448;2023-06-10T13:14:46;82.90;;;7.70;;
20497;SDS011;10407;53.238;10.448;2023-06-10T13:17:14;85.60;;;7.87;;
20497;SDS011;10407;53.238;10.448;2023-06-10T13:19:42;85.17;;;7.43;;
20497;SDS011;10407;53.238;10.448;2023-06-10T13:22:09;86.53;;;8.07;;
20497;SDS011;10407;53.238;10.448;2023-06-10T13:24:40;85.23;;;8.80;;
20497;SDS011;10407;53.238;10.448;2023-06-10T13:27:09;82.97;;;7.53;;
20497;SDS011;10407;53.238;10.448;2023-06-10T13:29:36;86.90;;;7.50;;
20497;SDS011;10407;53.238;10.448;2023-06-10T13:32:04;81.43;;;7.60;;
20497;SDS011;10407;53.238;10.448;2023-06-10T13:34:32;86.87;;;8.17;;
20497;SDS011;10407;53.238;10.448;2023-06-10T13:37:00;84.27;;;7.57;;
20497;SDS011;10407;53.238;10.448;2023-06-10T13:39:29;81.90;;;7.70;;
20497;SDS011;10407;53.238;10.448;2023-06-10T13:41:57;85.80;;;8.07;;
20497;SDS011;10407;53.238;10.448;2023-06-10T13:44:24;83.37;;;8.20;;
20497;SDS011;10407;53.238;10.448;2023-06-10T13:46:52;83.77;;;8.03;;
20497;SDS011;10407;53.238;10.448;2023-06-10T13:49:19;80.70;;;7.63;;
20497;SDS011;10407;53.238;10.448;2023-06-10T13:51:47;84.20;;;7.50;;
20497;SDS011;10407;53.238;10.448;2023-06-10T13:54:15;83.10;;;8.20;;
20497;SDS011;10407;53.238;10.448;2023-06-10T13:56:42;82.57;;;7.60;;
20497;SDS011;10407;53.238;10.448;2023-06-10T13:59:10;82.73;;;8.10;;
20497;SDS011;10407;53.238;10.448;2023-06-10T14:01:38;84.20;;;8.57;;
20497;SDS011;10407;53.238;10.448;2023-06-10T14:04:06;82.60;;;7.37;;
20497;SDS011;10407;53.238;10.448;2023-06-10T14:06:34;82.10;;;8.33;;
20497;SDS011;10407;53.238;10.448;2023-06-10T14:09:02;82.30;;;7.63;;
20497;SDS011;10407;53.238;10.448;2023-06-10T14:11:30;84.23;;;7.70;;
20497;SDS011;10407;53.238;10.448;2023-06-10T14:13:58;82.07;;;7.87;;
20497;SDS011;10407;53.238;10.448;2023-06-10T14:16:27;83.90;;;10.20;;
20497;SDS011;10407;53.238;10.448;2023-06-10T14:18:54;81.93;;;8.50;;
20497;SDS011;10407;53.238;10.448;2023-06-10T14:21:22;81.37;;;7.50;;
20497;SDS011;10407;53.238;10.448;2023-06-10T14:23:49;85.23;;;8.60;;
20497;SDS011;10407;53.238;10.448;2023-06-10T14:26:19;80.83;;;7.07;;
20497;SDS011;10407;53.238;10.448;2023-06-10T14:28:48;87.10;;;7.47;;
20497;SDS011;10407;53.238;10.448;2023-06-10T14:31:16;83.47;;;8.50;;
20497;SDS011;10407;53.238;10.448;2023-06-10T14:33:43;83.77;;;8.20;;
20497;SDS011;10407;53.238;10.448;2023-06-10T14:36:11;81.97;;;7.63;;
20497;SDS011;10407;53.238;10.448;2023-06-10T14:38:38;80.80;;;6.90;;
20497;SDS011;10407;53.238;10.448;2023-06-10T14:41:06;81.30;;;8.10;;
20497;SDS011;10407;53.238;10.448;2023-06-10T14:43:34;81.30;;;7.83;;
20497;SDS011;10407;53.238;10.448;2023-06-10T14:46:01;83.40;;;8.70;;